Time;durP1;ratioP1;P1;durP2;ratioP2;P2;SDS_P1;SDS_P2;PMS_P1;PMS_P2;Temp;Humidity;BMP_temperature;BMP_pressure;BME280_temperature;BME280_humidity;BME280_pressure;Samples;Min_cycle;Max_cycle;Signal;HPM_P1;HPM_P2
2022/05/25 00:01:04;;;;;;;5.57;1.30;;;;;;;8.14;100.00;99778.50;6241002;23;20228;-60
2022/05/25 00:03:48;;;;;;;3.15;1.85;;;;;;;8.14;100.00;99804.91;6250481;23;20030;-61
2022/05/25 00:06:33;;;;;;;2.95;1.75;;;;;;;7.93;100.00;99808.66;6250890;23;20354;-60
2022/05/25 00:09:17;;;;;;;3.13;1.97;;;;;;;7.60;100.00;99765.84;6240952;23;20473;-59
2022/05/25 00:12:02;;;;;;;3.83;1.52;;;;;;;7.46;100.00;99778.25;6249825;23;20250;-61
2022/05/25 00:14:48;;;;;;;2.30;1.42;;;;;;;7.24;100.00;99779.31;6228208;23;20027;-59
2022/05/25 00:17:32;;;;;;;3.10;1.60;;;;;;;7.50;100.00;99816.91;6238914;23;20107;-60
2022/05/25 00:20:18;;;;;;;6.28;2.03;;;;;;;7.51;100.00;99824.81;6217998;23;20054;-59
2022/05/25 00:23:02;;;;;;;2.58;1.63;;;;;;;7.25;100.00;99779.31;6250561;23;20241;-59
2022/05/25 00:25:47;;;;;;;2.63;1.75;;;;;;;7.25;100.00;99789.84;6217794;23;20111;-59
2022/05/25 00:28:32;;;;;;;3.08;1.85;;;;;;;7.18;100.00;99785.50;6227963;23;20046;-59
2022/05/25 00:31:16;;;;;;;5.88;1.70;;;;;;;7.29;100.00;99824.97;6249767;23;20070;-62
2022/05/25 00:34:01;;;;;;;3.22;2.08;;;;;;;7.18;100.00;99824.16;6250732;23;20027;-59
2022/05/25 00:36:45;;;;;;;3.28;1.75;;;;;;;7.08;100.00;99802.22;6248318;23;20031;-60
2022/05/25 00:39:29;;;;;;;7.07;2.10;;;;;;;6.93;100.00;99786.50;6250908;23;20412;-59
2022/05/25 00:42:14;;;;;;;4.38;1.80;;;;;;;7.02;100.00;99823.38;6249875;23;20027;-60
2022/05/25 00:44:58;;;;;;;5.00;1.90;;;;;;;7.04;100.00;99829.50;6250756;23;20047;-60
2022/05/25 00:47:47;;;;;;;3.90;1.92;;;;;;;6.78;100.00;99805.03;6250672;23;20050;-60
2022/05/25 00:51:12;;;;;;;4.47;2.50;;;;;;;6.90;100.00;99843.63;6238144;23;20031;-64
2022/05/25 00:53:42;;;;;;;5.88;3.88;;;;;;;6.89;100.00;99839.25;6240447;23;20381;-59
2022/05/25 00:56:29;;;;;;;5.40;3.70;;;;;;;6.87;100.00;99846.28;6251294;23;20354;-60
2022/05/25 00:59:21;;;;;;;5.70;3.50;;;;;;;6.90;100.00;99847.16;6238094;23;20079;-61
2022/05/25 01:02:05;;;;;;;6.32;3.25;;;;;;;6.85;100.00;99838.38;6252047;23;20063;-60
2022/05/25 01:04:50;;;;;;;4.72;3.13;;;;;;;6.78;100.00;99831.41;6252693;23;20051;-59
2022/05/25 01:07:43;;;;;;;3.80;2.55;;;;;;;6.79;100.00;99833.13;6252270;23;20125;-60
2022/05/25 01:10:40;;;;;;;3.70;2.60;;;;;;;6.84;100.00;99841.91;6227825;23;20139;-60
2022/05/25 01:13:44;;;;;;;9.27;2.92;;;;;;;6.81;100.00;99839.25;6240308;23;20373;-60
2022/05/25 01:16:34;;;;;;;4.05;2.67;;;;;;;6.73;100.00;99845.47;6238873;23;20030;-60
2022/05/25 01:19:43;;;;;;;5.13;2.72;;;;;;;6.62;100.00;99820.91;6217644;23;20027;-59
2022/05/25 01:22:42;;;;;;;4.70;2.60;;;;;;;6.72;100.00;99856.91;6240211;23;20077;-60
2022/05/25 01:25:52;;;;;;;4.90;2.80;;;;;;;6.73;100.00;99856.00;6196112;23;20082;-60
2022/05/25 01:28:53;;;;;;;5.03;2.97;;;;;;;6.36;100.00;99809.56;6250345;23;20031;-60
2022/05/25 01:31:50;;;;;;;5.10;3.00;;;;;;;6.54;100.00;99847.28;6238882;23;20043;-63
2022/05/25 01:34:37;;;;;;;4.85;3.10;;;;;;;6.50;100.00;99863.09;6247418;23;20026;-62
2022/05/25 01:37:48;;;;;;;5.97;3.38;;;;;;;6.49;100.00;99859.56;6216831;23;20031;-62
2022/05/25 01:40:49;;;;;;;6.80;3.10;;;;;;;6.46;100.00;99867.50;6126271;23;20025;-60
2022/05/25 01:43:38;;;;;;;6.07;3.13;;;;;;;6.38;100.00;99874.53;6096142;23;20097;-61
2022/05/25 01:46:48;;;;;;;6.13;3.13;;;;;;;6.39;100.00;99868.38;6116149;23;20025;-59
2022/05/25 01:49:39;;;;;;;7.65;3.17;;;;;;;6.40;100.00;99867.50;6076563;23;20025;-59
2022/05/25 01:52:28;;;;;;;8.25;3.40;;;;;;;6.35;100.00;99874.53;6119718;23;20029;-58
2022/05/25 01:55:21;;;;;;;6.55;3.63;;;;;;;6.38;100.00;99882.44;6129415;23;20033;-60
2022/05/25 01:58:10;;;;;;;6.65;3.10;;;;;;;6.35;100.00;99885.06;6126604;23;20125;-59
2022/05/25 02:00:58;;;;;;;6.15;3.40;;;;;;;6.25;100.00;99888.56;6119890;23;20033;-61
2022/05/25 02:06:51;;;;;;;9.02;3.65;;;;;;;6.32;100.00;99889.44;6128923;23;20400;-60
2022/05/25 02:10:02;;;;;;;9.30;4.45;;;;;;;6.32;100.00;99892.06;6129333;23;20076;-59
2022/05/25 02:13:08;;;;;;;13.40;4.35;;;;;;;6.29;100.00;99894.75;6129465;23;20085;-59
2022/05/25 02:15:59;;;;;;;8.43;4.30;;;;;;;6.31;100.00;99891.22;6120138;23;20033;-59
2022/05/25 02:18:52;;;;;;;7.32;4.30;;;;;;;6.34;100.00;99900.88;6197851;23;20031;-60
2022/05/25 02:22:25;;;;;;;8.00;3.90;;;;;;;6.37;100.00;99898.25;6216342;23;20107;-60
2022/05/25 02:25:21;;;;;;;10.00;4.38;;;;;;;6.44;100.00;99902.63;6119436;23;20368;-60
2022/05/25 02:28:13;;;;;;;10.02;3.75;;;;;;;6.39;100.00;99883.28;6077089;23;20028;-60
2022/05/25 02:31:01;;;;;;;8.70;3.35;;;;;;;6.40;100.00;99885.03;6099218;23;20037;-59
2022/05/25 02:33:50;;;;;;;9.70;3.22;;;;;;;6.51;100.00;99899.06;6108443;23;20036;-58
2022/05/25 02:36:37;;;;;;;7.50;3.70;;;;;;;6.27;100.00;99857.88;6117129;23;20507;-61
2022/05/25 02:39:22;;;;;;;6.28;3.00;;;;;;;6.59;100.00;99897.31;6129248;23;20388;-59
2022/05/25 02:42:15;;;;;;;11.90;3.88;;;;;;;6.65;100.00;99903.44;6119307;23;20372;-59
2022/05/25 02:45:00;;;;;;;7.93;3.30;;;;;;;6.66;100.00;99894.66;6117052;23;20109;-61
2022/05/25 02:47:44;;;;;;;7.05;3.33;;;;;;;6.75;100.00;99899.03;6098810;23;20029;-59
2022/05/25 02:50:29;;;;;;;5.53;3.05;;;;;;;6.64;100.00;99864.81;6126828;23;20076;-62
2022/05/25 02:53:13;;;;;;;6.10;2.90;;;;;;;6.65;100.00;99848.09;6080906;23;20028;-60
2022/05/25 02:55:58;;;;;;;5.27;2.90;;;;;;;6.77;100.00;99861.25;6128830;23;20101;-60
2022/05/25 02:58:42;;;;;;;6.72;3.38;;;;;;;7.04;100.00;99900.69;6129257;23;20284;-60
2022/05/25 03:01:28;;;;;;;4.68;2.85;;;;;;;6.89;100.00;99866.47;6205327;23;20520;-59
2022/05/25 03:04:13;;;;;;;4.30;2.70;;;;;;;7.09;100.00;99900.66;6218646;23;20442;-62
2022/05/25 03:06:57;;;;;;;3.60;2.45;;;;;;;7.09;100.00;99898.03;6253046;23;20043;-63
2022/05/25 03:09:42;;;;;;;3.37;2.43;;;;;;;7.01;100.00;99892.78;6239865;23;20157;-61
2022/05/25 03:12:27;;;;;;;5.85;3.15;;;;;;;6.99;100.00;99878.75;6253122;23;20586;-59
2022/05/25 03:15:11;;;;;;;4.45;2.67;;;;;;;7.11;100.00;99898.88;6253094;23;20458;-59
2022/05/25 03:17:56;;;;;;;5.18;3.20;;;;;;;7.16;100.00;99899.78;6243412;23;20046;-60
2022/05/25 03:20:40;;;;;;;7.88;3.60;;;;;;;7.22;100.00;99902.38;6240905;23;20026;-61
2022/05/25 03:23:24;;;;;;;7.85;3.50;;;;;;;7.26;100.00;99907.63;6250373;23;20031;-62
2022/05/25 03:26:09;;;;;;;6.88;3.50;;;;;;;7.37;100.00;99910.22;6251242;23;20031;-63
2022/05/25 03:28:54;;;;;;;6.10;3.63;;;;;;;7.39;100.00;99898.75;6215788;23;20027;-59
2022/05/25 03:31:38;;;;;;;7.88;3.20;;;;;;;7.45;100.00;99903.13;6251291;23;20031;-63
2022/05/25 03:34:23;;;;;;;7.05;4.05;;;;;;;7.50;100.00;99906.63;6239703;23;20476;-60
2022/05/25 03:37:07;;;;;;;5.80;3.67;;;;;;;7.37;100.00;99879.44;6251019;23;20023;-61
2022/05/25 03:39:51;;;;;;;6.80;3.47;;;;;;;7.66;100.00;99918.81;6228315;23;20438;-61
2022/05/25 03:42:38;;;;;;;8.02;4.13;;;;;;;7.76;100.00;99912.63;6241168;23;20481;-63
2022/05/25 03:45:22;;;;;;;6.85;4.07;;;;;;;7.83;100.00;99916.97;6252723;23;20031;-62
2022/05/25 03:48:07;;;;;;;9.20;4.80;;;;;;;7.87;100.00;99918.72;6249657;23;20074;-63
2022/05/25 03:50:51;;;;;;;6.05;4.13;;;;;;;7.72;100.00;99877.44;6196798;23;20030;-60
2022/05/25 03:53:36;;;;;;;7.35;4.28;;;;;;;7.86;100.00;99895.81;6248612;23;20042;-60
2022/05/25 03:56:20;;;;;;;10.30;4.47;;;;;;;7.83;100.00;99909.91;6227923;23;20477;-60
2022/05/25 03:59:05;;;;;;;8.43;5.25;;;;;;;7.79;100.00;99918.75;6228119;23;20042;-61
2022/05/25 04:01:51;;;;;;;8.88;5.00;;;;;;;7.72;100.00;99888.00;6206728;23;20366;-61
2022/05/25 04:04:35;;;;;;;8.57;5.13;;;;;;;7.83;100.00;99888.81;6206264;23;20504;-60
2022/05/25 04:07:20;;;;;;;8.90;5.28;;;;;;;7.87;100.00;99869.41;6246965;23;20058;-63
2022/05/25 04:10:05;;;;;;;13.35;5.85;;;;;;;8.01;100.00;99906.28;6248131;23;20416;-62
2022/05/25 04:12:50;;;;;;;9.77;5.30;;;;;;;8.11;100.00;99916.75;6222850;23;20026;-60
2022/05/25 04:15:35;;;;;;;10.63;5.47;;;;;;;8.28;100.00;99921.94;6214814;23;20027;-61
2022/05/25 04:18:19;;;;;;;8.90;5.00;;;;;;;8.39;100.00;99915.66;6247984;23;20030;-60
2022/05/25 04:21:04;;;;;;;8.00;4.75;;;;;;;8.35;100.00;99924.50;6248501;23;20424;-65
2022/05/25 04:23:49;;;;;;;8.50;5.43;;;;;;;8.38;100.00;99913.91;6249422;23;20073;-60
2022/05/25 04:26:34;;;;;;;9.53;4.57;;;;;;;8.30;100.00;99880.50;6222824;23;20078;-70
2022/05/25 04:29:18;;;;;;;5.88;3.67;;;;;;;8.32;100.00;99897.25;6247705;23;20296;-61
2022/05/25 04:32:03;;;;;;;7.37;4.17;;;;;;;8.38;100.00;99921.84;6245647;23;20120;-64
2022/05/25 04:34:48;;;;;;;6.07;3.22;;;;;;;8.28;100.00;99924.59;6247646;23;20365;-62
2022/05/25 04:40:38;;;;;;;4.38;2.65;;;;;;;8.12;100.00;99878.88;6236849;23;20081;-59
2022/05/25 04:43:24;;;;;;;4.93;2.80;;;;;;;8.44;100.00;99920.91;6217685;23;20110;-60
2022/05/25 04:46:11;;;;;;;5.15;2.33;;;;;;;8.59;100.00;99934.00;6250555;23;20031;-61
2022/05/25 04:48:57;;;;;;;4.72;2.40;;;;;;;8.64;100.00;99929.53;6249773;23;20031;-65
2022/05/25 04:51:42;;;;;;;4.70;2.58;;;;;;;8.59;100.00;99895.19;6217273;23;20039;-67
2022/05/25 04:54:26;;;;;;;4.72;2.33;;;;;;;8.90;100.00;99936.28;6247405;23;20134;-61
2022/05/25 04:57:19;;;;;;;3.33;2.10;;;;;;;8.86;100.00;99931.03;6239519;23;20023;-61
2022/05/25 05:00:06;;;;;;;5.13;2.10;;;;;;;8.84;100.00;99932.84;6239703;23;20405;-61
2022/05/25 05:02:51;;;;;;;3.55;1.88;;;;;;;8.88;100.00;99934.56;6249092;23;20541;-66
2022/05/25 05:05:35;;;;;;;3.97;2.10;;;;;;;8.62;100.00;99896.94;6249510;23;20111;-62
2022/05/25 05:08:21;;;;;;;5.32;1.80;;;;;;;8.85;100.00;99922.25;6237447;23;20026;-62
2022/05/25 05:11:18;;;;;;;3.55;1.60;;;;;;;9.03;100.00;99934.41;6226860;23;20100;-60
2022/05/25 05:14:03;;;;;;;4.40;2.20;;;;;;;8.84;100.00;99931.09;6239784;23;20503;-62
2022/05/25 05:16:48;;;;;;;4.93;1.95;;;;;;;8.75;100.00;99904.72;6237996;23;20030;-64
2022/05/25 05:19:43;;;;;;;4.43;1.60;;;;;;;8.87;100.00;99933.69;6226447;23;20532;-66
2022/05/25 05:22:34;;;;;;;2.67;1.90;;;;;;;9.09;100.00;99927.28;6205293;23;20529;-64
2022/05/25 05:25:20;;;;;;;5.25;2.88;;;;;;;9.39;100.00;99934.81;6213190;23;20043;-67
2022/05/25 05:28:20;;;;;;;2.72;1.73;;;;;;;9.72;100.00;99927.34;6193617;23;20027;-61
2022/05/25 05:31:05;;;;;;;2.75;1.65;;;;;;;9.76;100.00;99895.50;6246237;23;20131;-60
2022/05/25 05:33:50;;;;;;;;;;;;;;;10.15;100.00;99923.16;6247727;23;20089;-65
2022/05/25 05:36:42;;;;;;;4.20;1.60;;;;;;;10.12;100.00;99924.09;6247341;23;20254;-63
2022/05/25 05:39:32;;;;;;;4.13;1.90;;;;;;;10.22;100.00;99908.94;6215254;23;20031;-61
2022/05/25 05:42:19;;;;;;;3.03;1.60;;;;;;;10.37;100.00;99924.59;6249823;23;20026;-61
2022/05/25 05:45:09;;;;;;;3.35;1.63;;;;;;;10.25;100.00;99916.84;6249446;23;20094;-62
2022/05/25 05:48:01;;;;;;;3.38;1.52;;;;;;;10.11;100.00;99919.72;6246293;23;20078;-61
2022/05/25 05:50:49;;;;;;;5.68;1.95;;;;;;;10.10;100.00;99915.31;6217016;23;20481;-61
2022/05/25 05:53:33;;;;;;;3.08;1.65;;;;;;;10.14;100.00;99910.81;6250367;23;20043;-62
2022/05/25 05:56:19;;;;;;;4.07;1.60;;;;;;;10.17;100.00;99916.94;6216309;23;20476;-68
2022/05/25 05:59:04;;;;;;;7.03;1.63;;;;;;;9.90;100.00;99890.00;6196378;23;20031;-60
2022/05/25 06:01:48;;;;;;;3.33;1.40;;;;;;;10.28;100.00;99922.09;6214625;23;20107;-62
2022/05/25 06:04:34;;;;;;;3.08;1.25;;;;;;;10.49;100.00;99927.03;6216738;23;20215;-60
2022/05/25 06:07:18;;;;;;;7.05;1.70;;;;;;;10.48;100.00;99918.19;6225973;23;20085;-60
2022/05/25 06:10:05;;;;;;;2.80;1.40;;;;;;;10.69;100.00;99922.25;6250731;23;20107;-61
2022/05/25 06:12:50;;;;;;;2.63;1.17;;;;;;;10.77;100.00;99926.53;6196202;23;20027;-61
2022/05/25 06:21:42;;;;;;;7.55;1.50;;;;;;;11.60;100.00;99933.72;6241613;23;20099;-61
2022/05/25 06:24:29;;;;;;;3.85;1.50;;;;;;;11.64;100.00;99915.94;6228690;23;20033;-63
2022/05/25 06:27:14;;;;;;;2.85;1.08;;;;;;;11.29;100.00;99918.41;6251842;23;20130;-63
2022/05/25 06:29:58;;;;;;;2.03;1.00;;;;;;;11.26;100.00;99926.44;6218744;23;20426;-63
2022/05/25 06:32:47;;;;;;;1.30;0.85;;;;;;;11.35;100.00;99927.13;6196192;23;20026;-60
2022/05/25 06:35:34;;;;;;;3.33;0.90;;;;;;;11.47;100.00;99929.53;6251279;23;20023;-61
2022/05/25 06:38:18;;;;;;;5.28;0.90;;;;;;;11.43;100.00;99919.88;6227375;23;20138;-60
2022/05/25 06:41:02;;;;;;;2.13;0.90;;;;;;;11.17;100.00;99892.13;6251348;23;20083;-60
2022/05/25 06:43:47;;;;;;;1.98;0.70;;;;;;;11.44;98.76;99929.56;6251428;23;20375;-61
2022/05/25 06:46:31;;;;;;;2.33;1.10;;;;;;;11.43;99.95;99929.63;6250378;23;20031;-66
2022/05/25 06:49:16;;;;;;;3.83;1.10;;;;;;;11.54;100.00;99930.25;6241440;23;20370;-61
2022/05/25 06:52:00;;;;;;;5.45;1.40;;;;;;;11.62;100.00;99923.94;6249335;23;20031;-62
2022/05/25 06:54:44;;;;;;;4.82;1.35;;;;;;;11.78;100.00;99924.44;6251479;23;20034;-62
2022/05/25 06:57:29;;;;;;;4.55;1.30;;;;;;;11.73;100.00;99935.19;6239618;23;20035;-61
2022/05/25 07:00:15;;;;;;;2.38;1.30;;;;;;;11.66;100.00;99895.50;6228976;23;20063;-63
2022/05/25 07:03:03;;;;;;;5.78;1.40;;;;;;;12.03;100.00;99938.94;6251719;23;20062;-60
2022/05/25 07:05:48;;;;;;;2.85;1.50;;;;;;;12.25;98.45;99938.41;6218368;23;20031;-68
2022/05/25 07:08:32;;;;;;;2.83;1.42;;;;;;;12.44;95.29;99928.19;6251150;23;20101;-61
2022/05/25 07:11:18;;;;;;;3.30;1.52;;;;;;;12.64;94.04;99940.06;6248623;23;20031;-61
2022/05/25 07:14:04;;;;;;;1.65;1.20;;;;;;;13.11;89.71;99937.06;6240641;23;20030;-61
2022/05/25 07:16:48;;;;;;;1.70;1.27;;;;;;;13.72;87.69;99931.72;6195957;23;20081;-62
2022/05/25 07:19:33;;;;;;;1.77;1.20;;;;;;;14.44;84.17;99909.84;6250770;23;20157;-62
2022/05/25 07:22:17;;;;;;;3.20;1.40;;;;;;;15.16;76.58;99938.50;6228008;23;20311;-61
2022/05/25 07:25:02;;;;;;;2.03;0.90;;;;;;;15.11;73.99;99930.63;6250204;23;20034;-66
2022/05/25 07:27:47;;;;;;;3.85;1.20;;;;;;;15.57;70.72;99928.06;6227901;23;20081;-60
2022/05/25 07:30:34;;;;;;;6.15;1.40;;;;;;;16.21;68.47;99930.00;6215425;23;20042;-59
2022/05/25 07:33:19;;;;;;;2.65;1.33;;;;;;;17.04;62.80;99927.38;6196875;23;20089;-60
2022/05/25 07:36:08;;;;;;;1.98;1.25;;;;;;;17.06;58.37;99932.66;6196097;23;20030;-61
2022/05/25 07:38:58;;;;;;;1.67;1.05;;;;;;;16.25;59.59;99925.38;6240278;23;20082;-61
2022/05/25 07:41:51;;;;;;;3.13;0.90;;;;;;;15.26;67.80;99919.41;6217818;23;20482;-63
2022/05/25 07:44:41;;;;;;;3.05;1.05;;;;;;;14.66;71.97;99926.03;6217069;23;20113;-66
2022/05/25 07:47:28;;;;;;;2.17;1.30;;;;;;;14.51;74.09;99929.22;6240036;23;20085;-61
2022/05/25 07:50:13;;;;;;;3.55;1.20;;;;;;;14.23;73.86;99929.25;6240139;23;20027;-59
2022/05/25 07:53:00;;;;;;;1.70;0.95;;;;;;;14.15;70.42;99927.72;6248618;23;20043;-61
2022/05/25 07:55:44;;;;;;;3.47;1.10;;;;;;;16.13;63.88;99934.78;6250912;23;20050;-61
2022/05/25 07:58:29;;;;;;;2.83;1.25;;;;;;;17.48;56.20;99930.78;6249358;23;20449;-61
2022/05/25 08:01:17;;;;;;;6.13;1.30;;;;;;;19.01;49.04;99933.13;6250522;23;20106;-61
2022/05/25 08:07:05;;;;;;;2.50;1.10;;;;;;;19.87;44.24;99934.75;6249825;23;20047;-60
2022/05/25 08:09:56;;;;;;;3.35;0.90;;;;;;;18.80;48.90;99937.78;6206210;23;20031;-61
2022/05/25 08:12:43;;;;;;;2.63;1.02;;;;;;;20.09;44.23;99938.91;6227570;23;20027;-61
2022/05/25 08:15:29;;;;;;;1.23;0.90;;;;;;;21.20;39.94;99942.28;6237411;23;20528;-62
2022/05/25 08:18:16;;;;;;;1.17;0.88;;;;;;;21.46;37.02;99934.31;6174897;23;20062;-61
2022/05/25 08:21:01;;;;;;;3.55;0.90;;;;;;;20.19;38.82;99942.84;6240256;23;20509;-61
2022/05/25 08:23:45;;;;;;;1.35;0.95;;;;;;;19.71;40.42;99936.56;6248793;23;20030;-61
2022/05/25 08:26:30;;;;;;;6.10;1.10;;;;;;;21.00;36.92;99905.69;6217032;23;20035;-61
2022/05/25 08:29:15;;;;;;;2.95;1.02;;;;;;;21.90;33.81;99948.66;6238112;23;20031;-65
2022/05/25 08:32:00;;;;;;;2.70;0.90;;;;;;;22.45;32.28;99921.63;6225397;23;20480;-63
2022/05/25 08:34:45;;;;;;;3.17;1.05;;;;;;;21.66;32.71;99935.78;6247027;23;20033;-62
2022/05/25 08:37:29;;;;;;;1.98;1.02;;;;;;;23.45;31.72;99945.47;6248088;23;20386;-63
2022/05/25 08:40:18;;;;;;;2.53;1.05;;;;;;;23.95;30.36;99915.69;6237385;23;20607;-62
2022/05/25 08:43:03;;;;;;;1.92;0.88;;;;;;;24.40;27.58;99928.63;6193738;23;20473;-62
2022/05/25 08:45:58;;;;;;;0.90;0.90;;;;;;;25.79;25.18;99946.75;6248687;23;20035;-63
2022/05/25 08:48:43;;;;;;;2.28;1.00;;;;;;;23.20;28.41;99945.38;6213577;23;20031;-61
2022/05/25 08:51:30;;;;;;;7.00;1.25;;;;;;;21.20;32.93;99932.34;6248280;23;20473;-64
2022/05/25 08:54:16;;;;;;;2.53;1.33;;;;;;;19.59;36.47;99924.66;6248735;23;20086;-61
2022/05/25 08:57:11;;;;;;;2.15;0.88;;;;;;;18.98;39.64;99923.41;6248511;23;20066;-67
2022/05/25 09:00:01;;;;;;;1.95;1.20;;;;;;;19.17;39.87;99917.94;6239956;23;20084;-62
2022/05/25 09:03:11;;;;;;;1.77;1.05;;;;;;;21.00;38.22;99932.66;6216799;23;20500;-63
2022/05/25 09:06:04;;;;;;;3.47;1.23;;;;;;;23.26;30.92;99932.34;6239987;23;20099;-62
2022/05/25 09:09:25;;;;;;;3.33;1.30;;;;;;;25.57;27.21;99938.56;6193707;23;20319;-67
2022/05/25 09:12:09;;;;;;;4.10;1.45;;;;;;;26.13;25.26;99940.38;6193169;23;20151;-63
2022/05/25 09:15:01;;;;;;;4.25;1.30;;;;;;;25.01;25.35;99939.34;6239457;23;20358;-62
2022/05/25 09:18:08;;;;;;;1.65;1.15;;;;;;;23.32;27.16;99926.50;6217276;23;20107;-63
2022/05/25 09:20:52;;;;;;;6.95;1.40;;;;;;;24.06;27.18;99932.94;6239285;23;20119;-62
2022/05/25 09:23:36;;;;;;;;;;;;;;;25.14;28.77;99940.13;6239779;23;20340;-62
2022/05/25 09:26:21;;;;;;;1.67;1.30;;;;;;;23.48;27.66;99918.19;6226681;23;19965;-64
2022/05/25 09:29:07;;;;;;;;;;;;;;;23.73;26.78;99929.88;6238873;23;20043;-74
2022/05/25 09:32:38;;;;;;;4.00;1.35;;;;;;;26.13;27.09;99934.06;6205604;23;19917;-62
2022/05/25 09:35:29;;;;;;;1.92;1.58;;;;;;;25.87;23.21;99925.28;6226350;23;20366;-62
2022/05/25 09:38:30;;;;;;;3.95;1.40;;;;;;;25.67;22.19;99907.00;6236796;23;20031;-63
2022/05/25 09:41:20;;;;;;;1.52;1.25;;;;;;;24.07;25.27;99918.41;6192678;23;20090;-64
2022/05/25 09:44:06;;;;;;;3.35;1.50;;;;;;;22.31;27.49;99916.25;6247784;23;20107;-66
2022/05/25 09:46:56;;;;;;;2.25;1.20;;;;;;;21.44;29.28;99905.72;6249695;23;20109;-65
2022/05/25 09:49:44;;;;;;;3.10;1.30;;;;;;;21.06;30.34;99920.66;6215476;23;20382;-63
2022/05/25 09:52:43;;;;;;;3.72;1.30;;;;;;;20.99;30.06;99922.84;6206780;23;20153;-61
2022/05/25 09:55:37;;;;;;;4.10;1.70;;;;;;;20.92;30.84;99929.56;6241794;23;20450;-61
2022/05/25 09:58:33;;;;;;;3.05;1.30;;;;;;;22.19;29.43;99924.31;6251535;23;20031;-63
2022/05/25 10:01:31;;;;;;;2.25;1.50;;;;;;;23.18;27.43;99923.00;6249094;23;20043;-59
2022/05/25 10:04:51;;;;;;;4.32;1.40;;;;;;;24.70;26.34;99921.81;6248950;23;20388;-61
2022/05/25 10:07:38;;;;;;;2.42;1.50;;;;;;;25.37;23.66;99912.97;6239878;23;20031;-62
2022/05/25 10:10:33;;;;;;;2.88;1.70;;;;;;;24.12;24.79;99918.03;6218332;23;20026;-62
2022/05/25 10:13:23;;;;;;;3.65;1.75;;;;;;;24.07;25.50;99917.53;6228423;23;20031;-63
2022/05/25 10:16:28;;;;;;;2.03;1.73;;;;;;;24.81;24.46;99915.56;6249179;23;20120;-64
2022/05/25 10:19:19;;;;;;;3.22;1.73;;;;;;;26.09;22.63;99909.00;6249586;23;20035;-64
2022/05/25 10:22:03;;;;;;;3.15;1.42;;;;;;;24.29;23.80;99886.00;6215710;23;20089;-61
2022/05/25 10:25:03;;;;;;;3.22;2.25;;;;;;;26.50;23.26;99911.88;6212746;23;20039;-62
2022/05/25 10:27:48;;;;;;;6.15;3.05;;;;;;;28.06;21.73;99908.28;6248283;23;20023;-63
2022/05/25 10:37:05;;;;;;;2.33;1.33;;;;;;;27.09;19.71;99893.31;6239321;23;20145;-62
2022/05/25 10:39:52;;;;;;;2.10;1.63;;;;;;;25.26;22.11;99885.75;6211529;23;20062;-62
2022/05/25 10:42:39;;;;;;;3.63;1.60;;;;;;;24.65;23.66;99888.72;6240812;23;20356;-62
2022/05/25 10:45:44;;;;;;;3.60;2.00;;;;;;;25.01;24.72;99888.66;6228312;23;20034;-63
2022/05/25 10:48:41;;;;;;;5.07;2.00;;;;;;;23.48;25.40;99873.03;6205426;23;20026;-62
2022/05/25 10:52:02;;;;;;;2.83;1.83;;;;;;;24.09;24.99;99889.34;6226255;23;20026;-64
2022/05/25 10:54:51;;;;;;;5.47;2.00;;;;;;;24.09;25.56;99872.22;6104075;23;20085;-62
2022/05/25 10:57:54;;;;;;;2.97;1.52;;;;;;;24.78;25.54;99872.38;6118128;23;20029;-61
2022/05/25 11:01:06;;;;;;;2.40;1.65;;;;;;;23.94;26.46;99876.03;6118261;23;20032;-62
2022/05/25 11:04:50;;;;;;;3.83;1.75;;;;;;;23.99;26.38;99850.34;6118051;23;20033;-61
2022/05/25 11:07:39;;;;;;;2.97;1.73;;;;;;;25.04;24.02;99874.81;6067214;23;20557;-60
2022/05/25 11:11:04;;;;;;;3.78;1.70;;;;;;;25.40;23.40;99869.28;6049558;23;20160;-62
2022/05/25 11:14:12;;;;;;;3.27;1.53;;;;;;;25.60;23.27;99873.97;6056631;23;20136;-66
2022/05/25 11:17:25;;;;;;;3.33;1.85;;;;;;;25.74;22.67;99876.47;6039863;23;20529;-59
2022/05/25 11:20:31;;;;;;;3.58;1.75;;;;;;;24.56;23.06;99851.41;6012915;23;20412;-62
2022/05/25 11:23:37;;;;;;;2.88;1.50;;;;;;;24.08;23.83;99854.22;5983183;23;20031;-62
2022/05/25 11:26:44;;;;;;;4.88;1.52;;;;;;;22.97;25.96;99846.00;6003348;23;20482;-62
2022/05/25 11:29:45;;;;;;;1.70;1.60;;;;;;;23.01;25.81;99823.19;5983262;23;20062;-61
2022/05/25 11:32:58;;;;;;;6.88;2.00;;;;;;;22.87;26.64;99843.09;5983545;23;20137;-62
2022/05/25 11:35:46;;;;;;;5.47;1.77;;;;;;;22.51;26.85;99804.19;6012489;23;20031;-62
2022/05/25 11:39:05;;;;;;;2.03;1.45;;;;;;;22.78;27.31;99841.00;5981065;23;20506;-65
2022/05/25 11:42:40;;;;;;;6.35;1.70;;;;;;;22.52;28.36;99847.31;6064353;23;20094;-63
2022/05/25 11:45:45;;;;;;;5.65;2.03;;;;;;;22.40;28.01;99858.91;6069787;23;20070;-62
2022/05/25 11:48:39;;;;;;;5.65;1.92;;;;;;;21.84;29.62;99826.66;6020200;23;20140;-62
2022/05/25 11:51:33;;;;;;;3.53;1.70;;;;;;;22.13;29.48;99852.63;6046969;23;20065;-62
2022/05/25 11:54:26;;;;;;;4.60;2.03;;;;;;;21.87;29.44;99837.25;6060175;23;20058;-62
2022/05/25 11:57:17;;;;;;;4.63;1.95;;;;;;;21.67;27.94;99816.03;6141392;23;20028;-62
2022/05/25 12:00:19;;;;;;;4.28;1.60;;;;;;;21.93;28.14;99791.84;6174114;23;20036;-61
2022/05/25 12:03:47;;;;;;;5.93;2.00;;;;;;;22.07;29.05;99846.78;6164918;23;20501;-64
2022/05/25 12:06:57;;;;;;;5.40;1.95;;;;;;;21.63;30.33;99844.19;6154574;23;20443;-62
2022/05/25 12:09:55;;;;;;;3.80;2.30;;;;;;;21.13;30.63;99839.25;6184734;23;20068;-62
2022/05/25 12:12:46;;;;;;;6.82;2.30;;;;;;;19.39;33.25;99814.56;6176342;23;20075;-65
2022/05/25 12:15:53;;;;;;;5.65;1.60;;;;;;;19.09;35.73;99832.31;6134660;23;20047;-63
2022/05/25 12:18:47;;;;;;;5.30;1.70;;;;;;;19.85;33.78;99832.56;6186879;23;20032;-61
2022/05/25 12:21:40;;;;;;;5.15;1.92;;;;;;;19.99;33.00;99837.16;6216758;23;20096;-63
2022/05/25 12:24:35;;;;;;;5.85;1.90;;;;;;;20.10;32.78;99841.00;6208660;23;20065;-67
2022/05/25 12:27:23;;;;;;;4.20;2.10;;;;;;;19.96;33.46;99834.66;6219386;23;20031;-62
2022/05/25 12:30:15;;;;;;;5.18;2.13;;;;;;;19.91;33.92;99839.44;6219496;23;20086;-62
2022/05/25 12:33:03;;;;;;;3.63;2.20;;;;;;;19.50;34.17;99835.50;6217742;23;20035;-67
2022/05/25 12:35:53;;;;;;;5.05;2.10;;;;;;;19.69;34.25;99803.91;6187164;23;20322;-62
2022/05/25 12:38:39;;;;;;;3.75;1.77;;;;;;;20.59;32.45;99834.50;6208571;23;20028;-63
2022/05/25 12:41:35;;;;;;;2.38;1.90;;;;;;;21.15;31.43;99823.88;6196939;23;20032;-63
2022/05/25 12:51:06;;;;;;;4.40;1.83;;;;;;;20.58;31.90;99819.31;6208858;23;20023;-62
2022/05/25 12:53:50;;;;;;;7.77;1.90;;;;;;;20.42;32.21;99820.31;6208005;23;20365;-63
2022/05/25 12:56:38;;;;;;;7.30;2.65;;;;;;;20.37;32.69;99817.03;6206607;23;20027;-65
2022/05/25 12:59:37;;;;;;;6.28;2.45;;;;;;;20.28;34.14;99820.22;6186909;23;20043;-62
2022/05/25 13:02:27;;;;;;;7.82;3.05;;;;;;;20.19;33.86;99802.81;6209164;23;20075;-62
2022/05/25 13:05:44;;;;;;;6.55;2.03;;;;;;;20.18;33.41;99814.50;6216986;23;20109;-62
2022/05/25 13:09:01;;;;;;;6.50;2.20;;;;;;;19.87;33.67;99816.34;6143362;23;20036;-62
2022/05/25 13:11:51;;;;;;;12.60;1.90;;;;;;;19.60;34.24;99812.50;6195169;23;20264;-63
2022/05/25 13:14:35;;;;;;;7.18;1.98;;;;;;;19.69;35.45;99788.66;6186141;23;20370;-62
2022/05/25 13:17:45;;;;;;;4.75;1.83;;;;;;;20.08;33.94;99810.59;6196572;23;20493;-63
2022/05/25 13:20:30;;;;;;;7.38;2.67;;;;;;;20.12;33.93;99811.31;6186923;23;20022;-63
2022/05/25 13:24:03;;;;;;;5.93;2.50;;;;;;;20.18;34.75;99813.66;6207988;23;20031;-68
2022/05/25 13:27:11;;;;;;;4.32;1.92;;;;;;;19.78;34.21;99803.41;6089262;23;20118;-62
2022/05/25 13:30:17;;;;;;;10.30;2.85;;;;;;;19.54;35.11;99802.94;6068613;23;20547;-62
2022/05/25 13:33:23;;;;;;;5.43;1.90;;;;;;;19.30;36.45;99798.94;6088003;23;20032;-62
2022/05/25 13:36:14;;;;;;;5.05;1.80;;;;;;;19.04;36.28;99777.06;6067222;23;20097;-63
2022/05/25 13:39:01;;;;;;;3.47;1.77;;;;;;;18.82;37.34;99798.00;6100043;23;20085;-61
2022/05/25 13:42:01;;;;;;;7.60;2.10;;;;;;;18.75;37.56;99802.81;6078531;23;20126;-62
2022/05/25 13:44:57;;;;;;;3.35;1.60;;;;;;;18.87;36.70;99794.09;6097154;23;20053;-61
2022/05/25 13:47:54;;;;;;;5.00;2.10;;;;;;;18.99;37.36;99763.88;6098802;23;20033;-64
2022/05/25 13:50:40;;;;;;;3.22;1.50;;;;;;;19.11;36.37;99782.03;6057847;23;20138;-62
2022/05/25 13:53:37;;;;;;;7.57;1.98;;;;;;;19.10;36.16;99793.72;6097239;23;20524;-62
2022/05/25 13:56:31;;;;;;;3.70;1.60;;;;;;;19.17;36.36;99787.09;6094619;23;20551;-64